Главная страница
METAR-TAF:

METAR-TAF

Аэропорты :

Oswego County Airport

Фултон, Нью-Йорк, США

широта: 43-21-03N, долгота: 076-23-17W, высота над уровнем моря: 145 м

Текущие метеонаблюдения

Эта сводка был подготовлена 44 минут назад, в 21:54 UTC
Ветер 4 Узел от северно-северо-западный
Температура 12°C
Влажность 47%
Давление 1029 hPa
Видимость: 16.1 км
ясное небо

METAR: KFZY 192154Z AUTO 33004KT 10SM CLR 12/01 A3040 RMK AO2 SLP298 T01170006 $

Время: 18:38 (22:38 UTC)


TAF: отсутствует

Метеонаблюдения и прогнозы для более 4000 аэропортов (сводки METAR и TAF).

Имеющиеся станции представлены на карте желтыми и красными точками.

Чтобы увидеть название станции, наведите на нее мышь.

Затем щелкните, чтобы увидеть метеонаблюдения и метеопрогнозы.

Управление картой: чтобы увеличить масштаб, щелкните зеленые кнопки с черным крестиком; чтобы уменьшить масштаб, щелкните зеленую кнопку с тире; для просмотра соседних карт щелкайте зеленые стрелки.


METAR-TAF: